sensor_id;sensor_type;location;lat;lon;timestamp;pressure;altitude;pressure_sealevel;temperature;humidity
19286;BME280;9776;50.798;6.430;2023-04-01T00:01:23;98080.06;;;10.90;71.02
19286;BME280;9776;50.798;6.430;2023-04-01T00:03:50;98083.13;;;10.87;71.03
19286;BME280;9776;50.798;6.430;2023-04-01T00:06:18;98072.38;;;10.82;71.39
19286;BME280;9776;50.798;6.430;2023-04-01T00:08:45;98072.38;;;10.82;71.31
19286;BME280;9776;50.798;6.430;2023-04-01T00:11:13;98071.16;;;10.85;71.35
19286;BME280;9776;50.798;6.430;2023-04-01T00:13:40;98070.53;;;10.82;71.48
19286;BME280;9776;50.798;6.430;2023-04-01T00:16:07;98081.09;;;10.82;71.26
19286;BME280;9776;50.798;6.430;2023-04-01T00:18:33;98071.75;;;10.87;71.19
19286;BME280;9776;50.798;6.430;2023-04-01T00:21:00;98078.03;;;10.92;70.92
19286;BME280;9776;50.798;6.430;2023-04-01T00:23:28;98068.06;;;10.94;70.95
19286;BME280;9776;50.798;6.430;2023-04-01T00:25:55;98061.59;;;10.90;70.98
19286;BME280;9776;50.798;6.430;2023-04-01T00:28:22;98067.69;;;10.91;70.96
19286;BME280;9776;50.798;6.430;2023-04-01T00:30:49;98068.31;;;10.86;71.09
19286;BME280;9776;50.798;6.430;2023-04-01T00:33:15;98052.28;;;10.81;71.27
19286;BME280;9776;50.798;6.430;2023-04-01T00:35:43;98060.44;;;10.73;71.55
19286;BME280;9776;50.798;6.430;2023-04-01T00:38:10;98061.84;;;10.69;71.68
19286;BME280;9776;50.798;6.430;2023-04-01T00:40:40;98051.69;;;10.66;71.58
19286;BME280;9776;50.798;6.430;2023-04-01T00:43:13;98068.13;;;10.68;71.53
19286;BME280;9776;50.798;6.430;2023-04-01T00:45:41;98063.66;;;10.68;71.71
19286;BME280;9776;50.798;6.430;2023-04-01T00:48:11;98066.09;;;10.70;71.73
19286;BME280;9776;50.798;6.430;2023-04-01T00:50:40;98066.09;;;10.70;71.68
19286;BME280;9776;50.798;6.430;2023-04-01T00:53:09;98058.19;;;10.70;71.70
19286;BME280;9776;50.798;6.430;2023-04-01T00:55:41;98056.56;;;10.69;71.53
19286;BME280;9776;50.798;6.430;2023-04-01T00:58:14;98068.75;;;10.70;71.74
19286;BME280;9776;50.798;6.430;2023-04-01T01:00:44;98066.09;;;10.70;71.70
19286;BME280;9776;50.798;6.430;2023-04-01T01:03:12;98065.28;;;10.69;71.53
19286;BME280;9776;50.798;6.430;2023-04-01T01:05:55;98062.25;;;10.66;71.66
19286;BME280;9776;50.798;6.430;2023-04-01T01:08:33;98065.88;;;10.65;71.85
19286;BME280;9776;50.798;6.430;2023-04-01T01:11:10;98079.50;;;10.62;72.04
19286;BME280;9776;50.798;6.430;2023-04-01T01:13:43;98060.00;;;10.56;72.28
19286;BME280;9776;50.798;6.430;2023-04-01T01:16:21;98065.69;;;10.60;72.15
19286;BME280;9776;50.798;6.430;2023-04-01T01:18:59;98072.41;;;10.56;72.33
19286;BME280;9776;50.798;6.430;2023-04-01T01:21:47;98066.31;;;10.49;72.45
19286;BME280;9776;50.798;6.430;2023-04-01T01:24:41;98062.06;;;10.48;72.56
19286;BME280;9776;50.798;6.430;2023-04-01T01:27:10;98065.91;;;10.52;72.58
19286;BME280;9776;50.798;6.430;2023-04-01T01:30:01;98073.41;;;10.48;72.57
19286;BME280;9776;50.798;6.430;2023-04-01T01:33:02;98069.16;;;10.47;72.52
19286;BME280;9776;50.798;6.430;2023-04-01T01:35:37;98070.59;;;10.50;72.79
19286;BME280;9776;50.798;6.430;2023-04-01T01:38:08;98073.00;;;10.51;72.62
19286;BME280;9776;50.798;6.430;2023-04-01T01:40:39;98069.56;;;10.51;72.61
19286;BME280;9776;50.798;6.430;2023-04-01T01:43:10;98073.81;;;10.52;72.67
19286;BME280;9776;50.798;6.430;2023-04-01T01:45:41;98077.47;;;10.51;72.69
19286;BME280;9776;50.798;6.430;2023-04-01T01:48:11;98074.81;;;10.51;72.74
19286;BME280;9776;50.798;6.430;2023-04-01T01:50:40;98076.28;;;10.47;72.96
19286;BME280;9776;50.798;6.430;2023-04-01T01:53:10;98072.22;;;10.44;73.06
19286;BME280;9776;50.798;6.430;2023-04-01T01:55:38;98075.84;;;10.43;73.18
19286;BME280;9776;50.798;6.430;2023-04-01T01:58:08;98066.13;;;10.44;73.09
19286;BME280;9776;50.798;6.430;2023-04-01T02:00:39;98069.34;;;10.39;73.36
19286;BME280;9776;50.798;6.430;2023-04-01T02:03:08;98066.94;;;10.38;73.33
19286;BME280;9776;50.798;6.430;2023-04-01T02:05:36;98062.88;;;10.42;73.34
19286;BME280;9776;50.798;6.430;2023-04-01T02:08:07;98050.72;;;10.41;73.28
19286;BME280;9776;50.798;6.430;2023-04-01T02:10:37;98053.94;;;10.36;73.59
19286;BME280;9776;50.798;6.430;2023-04-01T02:13:10;98052.75;;;10.32;73.73
19286;BME280;9776;50.798;6.430;2023-04-01T02:15:41;98057.19;;;10.32;73.63
19286;BME280;9776;50.798;6.430;2023-04-01T02:18:09;98055.16;;;10.34;73.86
19286;BME280;9776;50.798;6.430;2023-04-01T02:20:37;98050.28;;;10.37;73.52
19286;BME280;9776;50.798;6.430;2023-04-01T02:23:07;98047.06;;;10.42;73.27
19286;BME280;9776;50.798;6.430;2023-04-01T02:25:36;98053.34;;;10.41;73.32
19286;BME280;9776;50.798;6.430;2023-04-01T02:28:05;98056.16;;;10.39;73.46
19286;BME280;9776;50.798;6.430;2023-04-01T02:30:35;98051.13;;;10.38;73.56
19286;BME280;9776;50.798;6.430;2023-04-01T02:33:03;98052.13;;;10.37;73.39
19286;BME280;9776;50.798;6.430;2023-04-01T02:35:33;98055.56;;;10.37;73.58
19286;BME280;9776;50.798;6.430;2023-04-01T02:38:01;98051.13;;;10.38;73.43
19286;BME280;9776;50.798;6.430;2023-04-01T02:40:29;98047.88;;;10.36;73.54
19286;BME280;9776;50.798;6.430;2023-04-01T02:42:56;98048.28;;;10.33;73.63
19286;BME280;9776;50.798;6.430;2023-04-01T02:45:22;98048.28;;;10.33;73.58
19286;BME280;9776;50.798;6.430;2023-04-01T02:47:49;98053.56;;;10.33;73.39
19286;BME280;9776;50.798;6.430;2023-04-01T02:50:16;98041.19;;;10.33;73.46
19286;BME280;9776;50.798;6.430;2023-04-01T02:52:42;98052.53;;;10.34;73.42
19286;BME280;9776;50.798;6.430;2023-04-01T02:55:10;98055.56;;;10.31;73.39
19286;BME280;9776;50.798;6.430;2023-04-01T02:57:38;98056.78;;;10.35;73.39
19286;BME280;9776;50.798;6.430;2023-04-01T03:00:05;98055.97;;;10.34;73.32
19286;BME280;9776;50.798;6.430;2023-04-01T03:02:37;98061.25;;;10.34;73.34
19286;BME280;9776;50.798;6.430;2023-04-01T03:05:04;98061.66;;;10.38;73.37
19286;BME280;9776;50.798;6.430;2023-04-01T03:07:32;98063.28;;;10.39;73.24
19286;BME280;9776;50.798;6.430;2023-04-01T03:09:59;98063.28;;;10.39;73.28
19286;BME280;9776;50.798;6.430;2023-04-01T03:12:25;98062.06;;;10.41;73.15
19286;BME280;9776;50.798;6.430;2023-04-01T03:14:53;98074.44;;;10.41;73.28
19286;BME280;9776;50.798;6.430;2023-04-01T03:17:20;98073.84;;;10.39;73.26
19286;BME280;9776;50.798;6.430;2023-04-01T03:19:46;98075.25;;;10.35;73.42
19286;BME280;9776;50.798;6.430;2023-04-01T03:22:13;98078.28;;;10.32;73.66
19286;BME280;9776;50.798;6.430;2023-04-01T03:24:40;98075.88;;;10.30;73.54
19286;BME280;9776;50.798;6.430;2023-04-01T03:27:07;98083.78;;;10.30;73.80
19286;BME280;9776;50.798;6.430;2023-04-01T03:29:33;98082.31;;;10.27;73.87
19286;BME280;9776;50.798;6.430;2023-04-01T03:32:01;98083.78;;;10.30;73.68
19286;BME280;9776;50.798;6.430;2023-04-01T03:34:28;98090.88;;;10.30;74.02
19286;BME280;9776;50.798;6.430;2023-04-01T03:36:55;98084.56;;;10.31;73.84
19286;BME280;9776;50.798;6.430;2023-04-01T03:39:21;98090.47;;;10.33;73.77
19286;BME280;9776;50.798;6.430;2023-04-01T03:41:48;98087.44;;;10.36;73.84
19286;BME280;9776;50.798;6.430;2023-04-01T03:44:15;98098.97;;;10.35;73.81
19286;BME280;9776;50.798;6.430;2023-04-01T03:46:41;98087.00;;;10.32;74.01
19286;BME280;9776;50.798;6.430;2023-04-01T03:49:10;98089.84;;;10.37;73.90
19286;BME280;9776;50.798;6.430;2023-04-01T03:51:37;98088.44;;;10.35;74.08
19286;BME280;9776;50.798;6.430;2023-04-01T03:54:05;98088.44;;;10.35;74.10
19286;BME280;9776;50.798;6.430;2023-04-01T03:56:31;98088.44;;;10.35;73.96
19286;BME280;9776;50.798;6.430;2023-04-01T03:58:58;98084.97;;;10.34;73.97
19286;BME280;9776;50.798;6.430;2023-04-01T04:01:27;98088.44;;;10.41;73.95
19286;BME280;9776;50.798;6.430;2023-04-01T04:03:55;98086.63;;;10.42;73.75
19286;BME280;9776;50.798;6.430;2023-04-01T04:06:25;98083.38;;;10.46;73.92
19286;BME280;9776;50.798;6.430;2023-04-01T04:08:51;98097.38;;;10.47;73.89
19286;BME280;9776;50.798;6.430;2023-04-01T04:11:19;98090.06;;;10.49;73.89
19286;BME280;9776;50.798;6.430;2023-04-01T04:13:46;98091.28;;;10.46;73.80
19286;BME280;9776;50.798;6.430;2023-04-01T04:16:14;98096.53;;;10.46;73.93
19286;BME280;9776;50.798;6.430;2023-04-01T04:18:41;98096.53;;;10.46;73.98
19286;BME280;9776;50.798;6.430;2023-04-01T04:21:11;98091.47;;;10.45;73.83
19286;BME280;9776;50.798;6.430;2023-04-01T04:23:40;98092.09;;;10.47;73.94
19286;BME280;9776;50.798;6.430;2023-04-01T04:26:09;98101.00;;;10.46;74.03
19286;BME280;9776;50.798;6.430;2023-04-01T04:28:36;98100.59;;;10.42;74.17
19286;BME280;9776;50.798;6.430;2023-04-01T04:31:02;98104.25;;;10.41;74.23
19286;BME280;9776;50.798;6.430;2023-04-01T04:33:30;98100.59;;;10.42;74.17
19286;BME280;9776;50.798;6.430;2023-04-01T04:35:57;98102.44;;;10.42;74.26
19286;BME280;9776;50.798;6.430;2023-04-01T04:38:25;98108.50;;;10.42;74.26
19286;BME280;9776;50.798;6.430;2023-04-01T04:40:53;98107.09;;;10.46;74.12
19286;BME280;9776;50.798;6.430;2023-04-01T04:43:20;98112.78;;;10.43;74.20
19286;BME280;9776;50.798;6.430;2023-04-01T04:45:47;98111.16;;;10.49;74.21
19286;BME280;9776;50.798;6.430;2023-04-01T04:48:15;98123.13;;;10.51;74.10
19286;BME280;9776;50.798;6.430;2023-04-01T04:50:43;98116.44;;;10.49;74.31
19286;BME280;9776;50.798;6.430;2023-04-01T04:53:10;98118.25;;;10.42;74.51
19286;BME280;9776;50.798;6.430;2023-04-01T04:55:37;98126.78;;;10.44;74.70
19286;BME280;9776;50.798;6.430;2023-04-01T04:58:05;98131.00;;;10.45;74.70
19286;BME280;9776;50.798;6.430;2023-04-01T05:00:32;98133.06;;;10.43;74.84
19286;BME280;9776;50.798;6.430;2023-04-01T05:03:00;98134.50;;;10.39;75.00
19286;BME280;9776;50.798;6.430;2023-04-01T05:05:27;98133.84;;;10.37;75.01
19286;BME280;9776;50.798;6.430;2023-04-01T05:07:54;98141.56;;;10.38;75.12
19286;BME280;9776;50.798;6.430;2023-04-01T05:10:20;98133.84;;;10.37;75.04
19286;BME280;9776;50.798;6.430;2023-04-01T05:12:47;98145.63;;;10.41;74.99
19286;BME280;9776;50.798;6.430;2023-04-01T05:15:15;98149.28;;;10.40;75.23
19286;BME280;9776;50.798;6.430;2023-04-01T05:17:42;98154.53;;;10.40;75.21
19286;BME280;9776;50.798;6.430;2023-04-01T05:20:09;98146.22;;;10.43;75.37
19286;BME280;9776;50.798;6.430;2023-04-01T05:22:36;98158.81;;;10.41;75.38
19286;BME280;9776;50.798;6.430;2023-04-01T05:25:02;98152.09;;;10.45;75.32
19286;BME280;9776;50.798;6.430;2023-04-01T05:27:29;98161.88;;;10.44;75.32
19286;BME280;9776;50.798;6.430;2023-04-01T05:29:57;98166.75;;;10.47;75.30
19286;BME280;9776;50.798;6.430;2023-04-01T05:32:25;98160.25;;;10.50;75.40
19286;BME280;9776;50.798;6.430;2023-04-01T05:34:52;98162.69;;;10.51;75.54
19286;BME280;9776;50.798;6.430;2023-04-01T05:37:19;98162.69;;;10.51;75.43
19286;BME280;9776;50.798;6.430;2023-04-01T05:39:45;98161.06;;;10.57;75.62
19286;BME280;9776;50.798;6.430;2023-04-01T05:42:12;98171.41;;;10.58;75.50
19286;BME280;9776;50.798;6.430;2023-04-01T05:44:39;98170.00;;;10.56;75.66
19286;BME280;9776;50.798;6.430;2023-04-01T05:47:05;98167.16;;;10.57;75.78
19286;BME280;9776;50.798;6.430;2023-04-01T05:49:34;98159.66;;;10.61;75.80
19286;BME280;9776;50.798;6.430;2023-04-01T05:52:00;98175.66;;;10.59;75.79
19286;BME280;9776;50.798;6.430;2023-04-01T05:54:27;98181.16;;;10.58;75.93
19286;BME280;9776;50.798;6.430;2023-04-01T05:56:54;98172.84;;;10.61;75.96
19286;BME280;9776;50.798;6.430;2023-04-01T05:59:21;98175.66;;;10.66;75.86
19286;BME280;9776;50.798;6.430;2023-04-01T06:01:47;98178.50;;;10.71;75.81
19286;BME280;9776;50.798;6.430;2023-04-01T06:04:15;98183.00;;;10.70;75.78
19286;BME280;9776;50.798;6.430;2023-04-01T06:06:44;98183.38;;;10.74;75.79
19286;BME280;9776;50.798;6.430;2023-04-01T06:09:14;98186.44;;;10.77;75.71
19286;BME280;9776;50.798;6.430;2023-04-01T06:11:53;98187.03;;;10.79;75.81
19286;BME280;9776;50.798;6.430;2023-04-01T06:14:29;98193.94;;;10.80;75.63
19286;BME280;9776;50.798;6.430;2023-04-01T06:17:20;98195.34;;;10.76;75.73
19286;BME280;9776;50.798;6.430;2023-04-01T06:19:55;98206.13;;;10.95;75.72
19286;BME280;9776;50.798;6.430;2023-04-01T06:22:52;98201.84;;;11.00;75.38
19286;BME280;9776;50.798;6.430;2023-04-01T06:25:32;98203.28;;;11.09;75.19
19286;BME280;9776;50.798;6.430;2023-04-01T06:28:23;98197.38;;;10.94;75.46
19286;BME280;9776;50.798;6.430;2023-04-01T06:31:00;98200.44;;;10.91;75.73
19286;BME280;9776;50.798;6.430;2023-04-01T06:33:46;98194.78;;;10.88;75.74
19286;BME280;9776;50.798;6.430;2023-04-01T06:36:32;98199.25;;;10.87;75.61
19286;BME280;9776;50.798;6.430;2023-04-01T06:39:19;98196.78;;;10.86;75.83
19286;BME280;9776;50.798;6.430;2023-04-01T06:42:10;98204.72;;;10.92;75.57
19286;BME280;9776;50.798;6.430;2023-04-01T06:44:49;98197.22;;;11.02;75.56
19286;BME280;9776;50.798;6.430;2023-04-01T06:47:32;98208.78;;;11.01;75.27
19286;BME280;9776;50.798;6.430;2023-04-01T06:50:11;98217.91;;;10.92;75.55
19286;BME280;9776;50.798;6.430;2023-04-01T06:52:50;98215.47;;;10.91;75.69
19286;BME280;9776;50.798;6.430;2023-04-01T06:55:31;98223.00;;;10.94;75.41
19286;BME280;9776;50.798;6.430;2023-04-01T06:58:03;98219.53;;;10.93;75.69
19286;BME280;9776;50.798;6.430;2023-04-01T07:00:35;98234.75;;;10.98;75.73
19286;BME280;9776;50.798;6.430;2023-04-01T07:03:16;98233.75;;;10.99;75.47
19286;BME280;9776;50.798;6.430;2023-04-01T07:05:45;98232.13;;;11.04;75.63
19286;BME280;9776;50.798;6.430;2023-04-01T07:08:15;98226.22;;;11.09;75.46
19286;BME280;9776;50.798;6.430;2023-04-01T07:10:47;98231.91;;;11.12;75.26
19286;BME280;9776;50.798;6.430;2023-04-01T07:13:20;98238.59;;;11.15;75.29
19286;BME280;9776;50.798;6.430;2023-04-01T07:15:55;98243.50;;;11.24;74.81
19286;BME280;9776;50.798;6.430;2023-04-01T07:18:30;98241.44;;;11.26;75.09
19286;BME280;9776;50.798;6.430;2023-04-01T07:20:59;98251.59;;;11.29;75.07
19286;BME280;9776;50.798;6.430;2023-04-01T07:23:32;98246.72;;;11.33;74.90
19286;BME280;9776;50.798;6.430;2023-04-01T07:26:08;98248.75;;;11.37;74.67
19286;BME280;9776;50.798;6.430;2023-04-01T07:28:40;98245.91;;;11.39;74.90
19286;BME280;9776;50.798;6.430;2023-04-01T07:31:15;98258.72;;;11.42;74.65
19286;BME280;9776;50.798;6.430;2023-04-01T07:33:53;98262.59;;;11.39;74.73
19286;BME280;9776;50.798;6.430;2023-04-01T07:36:29;98262.59;;;11.39;75.04
19286;BME280;9776;50.798;6.430;2023-04-01T07:39:07;98264.19;;;11.47;74.73
19286;BME280;9776;50.798;6.430;2023-04-01T07:41:47;98275.56;;;11.48;74.76
19286;BME280;9776;50.798;6.430;2023-04-01T07:44:24;98276.78;;;11.52;74.65
19286;BME280;9776;50.798;6.430;2023-04-01T07:47:03;98277.00;;;11.57;74.64
19286;BME280;9776;50.798;6.430;2023-04-01T07:49:40;98283.28;;;11.56;74.70
19286;BME280;9776;50.798;6.430;2023-04-01T07:52:17;98279.41;;;11.58;74.39
19286;BME280;9776;50.798;6.430;2023-04-01T07:54:49;98284.09;;;11.69;74.36
19286;BME280;9776;50.798;6.430;2023-04-01T07:57:23;98294.66;;;11.76;74.07
19286;BME280;9776;50.798;6.430;2023-04-01T07:59:59;98295.66;;;11.68;74.40
19286;BME280;9776;50.798;6.430;2023-04-01T08:02:40;98300.94;;;11.75;74.02
19286;BME280;9776;50.798;6.430;2023-04-01T08:05:19;98299.53;;;11.72;73.96
19286;BME280;9776;50.798;6.430;2023-04-01T08:07:55;98306.47;;;11.73;74.02
19286;BME280;9776;50.798;6.430;2023-04-01T08:10:28;98297.53;;;11.74;74.08
19286;BME280;9776;50.798;6.430;2023-04-01T08:13:06;98314.16;;;11.68;74.15
19286;BME280;9776;50.798;6.430;2023-04-01T08:15:39;98321.09;;;11.76;74.34
19286;BME280;9776;50.798;6.430;2023-04-01T08:18:15;98317.81;;;11.80;74.23
19286;BME280;9776;50.798;6.430;2023-04-01T08:20:47;98318.03;;;11.72;74.28
19286;BME280;9776;50.798;6.430;2023-04-01T08:23:18;98328.78;;;11.84;74.06
19286;BME280;9776;50.798;6.430;2023-04-01T08:25:50;98327.97;;;11.90;73.83
19286;BME280;9776;50.798;6.430;2023-04-01T08:28:24;98334.50;;;11.87;73.94
19286;BME280;9776;50.798;6.430;2023-04-01T08:30:56;98340.78;;;11.86;74.23
19286;BME280;9776;50.798;6.430;2023-04-01T08:33:26;98340.59;;;11.81;73.99
19286;BME280;9776;50.798;6.430;2023-04-01T08:35:57;98344.44;;;11.92;74.02
19286;BME280;9776;50.798;6.430;2023-04-01T08:38:28;98346.47;;;12.03;73.45
19286;BME280;9776;50.798;6.430;2023-04-01T08:41:00;98344.19;;;12.13;73.19
19286;BME280;9776;50.798;6.430;2023-04-01T08:43:51;98351.94;;;12.15;73.20
19286;BME280;9776;50.798;6.430;2023-04-01T08:49:41;98356.59;;;12.19;72.94
19286;BME280;9776;50.798;6.430;2023-04-01T08:52:30;98356.19;;;12.16;73.00
19286;BME280;9776;50.798;6.430;2023-04-01T08:55:30;98359.81;;;12.21;72.74
19286;BME280;9776;50.798;6.430;2023-04-01T08:58:11;98364.72;;;12.24;72.91
19286;BME280;9776;50.798;6.430;2023-04-01T09:00:45;98372.22;;;12.27;72.55
19286;BME280;9776;50.798;6.430;2023-04-01T09:03:34;98373.06;;;12.21;72.70
19286;BME280;9776;50.798;6.430;2023-04-01T09:09:14;98385.56;;;12.59;71.75
19286;BME280;9776;50.798;6.430;2023-04-01T09:12:02;98380.22;;;12.72;71.52
19286;BME280;9776;50.798;6.430;2023-04-01T09:14:48;98376.06;;;12.89;71.08
19286;BME280;9776;50.798;6.430;2023-04-01T09:20:42;98388.59;;;13.13;70.63
19286;BME280;9776;50.798;6.430;2023-04-01T09:26:12;98392.38;;;13.30;70.25
19286;BME280;9776;50.798;6.430;2023-04-01T09:28:49;98389.59;;;13.19;70.35
19286;BME280;9776;50.798;6.430;2023-04-01T09:31:33;98398.34;;;13.19;70.50
19286;BME280;9776;50.798;6.430;2023-04-01T09:34:27;98402.78;;;13.25;70.05
19286;BME280;9776;50.798;6.430;2023-04-01T09:37:17;98394.53;;;13.40;69.81
19286;BME280;9776;50.798;6.430;2023-04-01T09:39:54;98401.78;;;13.51;69.56
19286;BME280;9776;50.798;6.430;2023-04-01T09:42:42;98405.50;;;13.50;69.68
19286;BME280;9776;50.798;6.430;2023-04-01T09:45:19;98402.56;;;13.83;68.69
19286;BME280;9776;50.798;6.430;2023-04-01T09:48:00;98398.59;;;14.16;67.99
19286;BME280;9776;50.798;6.430;2023-04-01T09:50:35;98409.06;;;14.36;67.45
19286;BME280;9776;50.798;6.430;2023-04-01T09:53:20;98409.19;;;14.77;66.24
19286;BME280;9776;50.798;6.430;2023-04-01T10:08:41;98437.50;;;15.02;65.30
19286;BME280;9776;50.798;6.430;2023-04-01T10:11:40;98436.03;;;14.69;66.27
19286;BME280;9776;50.798;6.430;2023-04-01T10:14:36;98442.75;;;14.54;66.47
19286;BME280;9776;50.798;6.430;2023-04-01T10:17:39;98443.94;;;14.40;66.68
19286;BME280;9776;50.798;6.430;2023-04-01T10:20:37;98453.38;;;14.29;66.97
19286;BME280;9776;50.798;6.430;2023-04-01T10:23:25;98445.41;;;14.11;67.20
19286;BME280;9776;50.798;6.430;2023-04-01T10:26:12;98453.69;;;13.96;67.23
19286;BME280;9776;50.798;6.430;2023-04-01T10:29:15;98461.41;;;13.98;67.46
19286;BME280;9776;50.798;6.430;2023-04-01T10:32:07;98463.72;;;14.12;66.60
19286;BME280;9776;50.798;6.430;2023-04-01T10:35:18;98460.97;;;14.26;66.40
19286;BME280;9776;50.798;6.430;2023-04-01T10:38:09;98468.69;;;14.52;65.87
19286;BME280;9776;50.798;6.430;2023-04-01T10:41:22;98458.75;;;14.84;65.00
19286;BME280;9776;50.798;6.430;2023-04-01T10:44:25;98468.13;;;15.04;64.53
19286;BME280;9776;50.798;6.430;2023-04-01T10:53:37;98474.09;;;15.77;62.89
19286;BME280;9776;50.798;6.430;2023-04-01T10:56:41;98466.19;;;16.47;61.08
19286;BME280;9776;50.798;6.430;2023-04-01T10:59:32;98474.09;;;16.54;60.92
19286;BME280;9776;50.798;6.430;2023-04-01T11:12:09;98483.91;;;15.65;62.93
19286;BME280;9776;50.798;6.430;2023-04-01T11:21:23;98489.88;;;15.49;62.56
19286;BME280;9776;50.798;6.430;2023-04-01T11:27:05;98485.88;;;15.22;63.18
19286;BME280;9776;50.798;6.430;2023-04-01T11:29:58;98490.69;;;14.95;63.93
19286;BME280;9776;50.798;6.430;2023-04-01T11:32:38;98493.88;;;14.86;64.22
19286;BME280;9776;50.798;6.430;2023-04-01T11:35:23;98502.94;;;14.60;64.65
19286;BME280;9776;50.798;6.430;2023-04-01T11:37:55;98504.59;;;14.36;65.09
19286;BME280;9776;50.798;6.430;2023-04-01T11:40:31;98508.44;;;14.09;65.84
19286;BME280;9776;50.798;6.430;2023-04-01T11:43:07;98514.03;;;14.01;66.15
19286;BME280;9776;50.798;6.430;2023-04-01T11:45:44;98515.34;;;13.85;66.33
19286;BME280;9776;50.798;6.430;2023-04-01T11:48:46;98514.31;;;13.55;67.02
19286;BME280;9776;50.798;6.430;2023-04-01T11:54:44;98523.25;;;13.60;66.94
19286;BME280;9776;50.798;6.430;2023-04-01T11:57:38;98529.53;;;13.66;66.76
19286;BME280;9776;50.798;6.430;2023-04-01T12:00:44;98524.88;;;13.61;67.00
19286;BME280;9776;50.798;6.430;2023-04-01T12:03:33;98535.34;;;13.88;66.32
19286;BME280;9776;50.798;6.430;2023-04-01T12:06:08;98532.66;;;14.19;65.79
19286;BME280;9776;50.798;6.430;2023-04-01T12:08:45;98535.22;;;14.57;65.14
19286;BME280;9776;50.798;6.430;2023-04-01T12:11:25;98530.56;;;15.13;63.88
19286;BME280;9776;50.798;6.430;2023-04-01T12:14:01;98549.63;;;15.47;62.82
19286;BME280;9776;50.798;6.430;2023-04-01T12:16:41;98546.59;;;15.73;62.43
19286;BME280;9776;50.798;6.430;2023-04-01T12:19:15;98551.38;;;16.24;61.16
19286;BME280;9776;50.798;6.430;2023-04-01T12:21:56;98555.06;;;16.76;60.06
19286;BME280;9776;50.798;6.430;2023-04-01T12:24:40;98547.28;;;17.37;58.58
19286;BME280;9776;50.798;6.430;2023-04-01T12:27:31;98553.81;;;17.98;57.43
19286;BME280;9776;50.798;6.430;2023-04-01T12:33:23;98560.53;;;18.45;56.20
19286;BME280;9776;50.798;6.430;2023-04-01T12:36:00;98564.03;;;17.73;57.96
19286;BME280;9776;50.798;6.430;2023-04-01T12:38:36;98574.81;;;17.26;59.06
19286;BME280;9776;50.798;6.430;2023-04-01T12:41:14;98575.19;;;16.83;60.09
19286;BME280;9776;50.798;6.430;2023-04-01T12:44:08;98572.34;;;16.32;61.40
19286;BME280;9776;50.798;6.430;2023-04-01T12:46:52;98573.16;;;16.32;61.53
19286;BME280;9776;50.798;6.430;2023-04-01T12:49:33;98579.28;;;16.21;61.65
19286;BME280;9776;50.798;6.430;2023-04-01T12:52:10;98581.16;;;16.32;61.89
19286;BME280;9776;50.798;6.430;2023-04-01T12:54:55;98585.41;;;16.22;61.60
19286;BME280;9776;50.798;6.430;2023-04-01T12:57:38;98586.66;;;16.19;62.05
19286;BME280;9776;50.798;6.430;2023-04-01T13:00:26;98589.09;;;16.21;61.60
19286;BME280;9776;50.798;6.430;2023-04-01T13:03:07;98590.50;;;16.65;60.64
19286;BME280;9776;50.798;6.430;2023-04-01T13:06:09;98583.47;;;16.40;60.67
19286;BME280;9776;50.798;6.430;2023-04-01T13:08:43;98594.94;;;16.41;60.85
19286;BME280;9776;50.798;6.430;2023-04-01T13:11:19;98603.03;;;16.46;60.41
19286;BME280;9776;50.798;6.430;2023-04-01T13:17:00;98597.38;;;16.01;61.18
19286;BME280;9776;50.798;6.430;2023-04-01T13:19:36;98602.81;;;15.76;61.86
19286;BME280;9776;50.798;6.430;2023-04-01T13:22:10;98601.34;;;15.62;62.17
19286;BME280;9776;50.798;6.430;2023-04-01T13:24:45;98605.47;;;15.76;61.94
19286;BME280;9776;50.798;6.430;2023-04-01T13:27:18;98603.47;;;15.90;61.53
19286;BME280;9776;50.798;6.430;2023-04-01T13:29:59;98612.34;;;15.84;61.71
19286;BME280;9776;50.798;6.430;2023-04-01T13:32:33;98605.69;;;16.05;60.99
19286;BME280;9776;50.798;6.430;2023-04-01T13:35:21;98605.34;;;16.42;60.10
19286;BME280;9776;50.798;6.430;2023-04-01T13:38:15;98616.97;;;16.60;59.72
19286;BME280;9776;50.798;6.430;2023-04-01T13:40:51;98619.53;;;16.55;59.88
19286;BME280;9776;50.798;6.430;2023-04-01T13:43:24;98621.84;;;16.21;60.57
19286;BME280;9776;50.798;6.430;2023-04-01T13:46:26;98621.66;;;15.75;61.61
19286;BME280;9776;50.798;6.430;2023-04-01T13:52:00;98630.16;;;15.47;62.17
19286;BME280;9776;50.798;6.430;2023-04-01T13:57:43;98630.44;;;15.39;62.30
19286;BME280;9776;50.798;6.430;2023-04-01T14:00:32;98632.66;;;15.42;61.90
19286;BME280;9776;50.798;6.430;2023-04-01T14:06:06;98643.00;;;15.86;61.13
19286;BME280;9776;50.798;6.430;2023-04-01T14:08:47;98639.75;;;15.84;60.99
19286;BME280;9776;50.798;6.430;2023-04-01T14:11:22;98634.53;;;15.60;61.20
19286;BME280;9776;50.798;6.430;2023-04-01T14:14:00;98651.13;;;15.37;61.70
19286;BME280;9776;50.798;6.430;2023-04-01T14:16:56;98651.22;;;15.06;62.53
19286;BME280;9776;50.798;6.430;2023-04-01T14:19:44;98647.06;;;14.92;62.88
19286;BME280;9776;50.798;6.430;2023-04-01T14:22:20;98656.66;;;14.93;62.78
19286;BME280;9776;50.798;6.430;2023-04-01T14:25:12;98654.16;;;14.98;62.98
19286;BME280;9776;50.798;6.430;2023-04-01T14:27:51;98648.28;;;15.14;62.54
19286;BME280;9776;50.798;6.430;2023-04-01T14:30:55;98659.34;;;15.11;62.21
19286;BME280;9776;50.798;6.430;2023-04-01T14:33:47;98657.16;;;15.26;61.86
19286;BME280;9776;50.798;6.430;2023-04-01T14:36:31;98657.59;;;15.23;61.98
19286;BME280;9776;50.798;6.430;2023-04-01T14:39:12;98662.59;;;15.13;62.06
19286;BME280;9776;50.798;6.430;2023-04-01T14:41:47;98654.53;;;15.01;62.92
19286;BME280;9776;50.798;6.430;2023-04-01T14:44:22;98664.34;;;15.01;62.81
19286;BME280;9776;50.798;6.430;2023-04-01T14:47:09;98663.22;;;15.15;62.13
19286;BME280;9776;50.798;6.430;2023-04-01T14:49:41;98677.91;;;15.35;61.79
19286;BME280;9776;50.798;6.430;2023-04-01T14:52:13;98682.16;;;15.43;61.85
19286;BME280;9776;50.798;6.430;2023-04-01T14:54:42;98674.41;;;15.60;61.49
19286;BME280;9776;50.798;6.430;2023-04-01T14:57:12;98679.88;;;15.65;61.45
19286;BME280;9776;50.798;6.430;2023-04-01T14:59:41;98683.94;;;15.67;61.44
19286;BME280;9776;50.798;6.430;2023-04-01T15:02:30;98690.00;;;15.56;61.23
19286;BME280;9776;50.798;6.430;2023-04-01T15:05:11;98683.34;;;15.47;61.69